createdAt,value
2019-02-12T00:01:26.631Z,97949.80
2019-02-12T00:04:33.807Z,97954.06
2019-02-12T00:07:40.739Z,97954.95
2019-02-12T00:10:47.595Z,97962.52
2019-02-12T00:13:54.651Z,97954.98
2019-02-12T00:17:04.002Z,97960.05
2019-02-12T00:20:12.189Z,97968.51
2019-02-12T00:23:20.690Z,97966.42
2019-02-12T00:26:27.623Z,97971.52
2019-02-12T00:29:34.582Z,97963.98
2019-02-12T00:32:42.501Z,97961.91
2019-02-12T00:35:49.536Z,97962.34
2019-02-12T00:38:56.491Z,97969.89
2019-02-12T00:42:03.369Z,97979.17
2019-02-12T00:45:10.584Z,97984.70
2019-02-12T00:48:17.524Z,97988.53
2019-02-12T00:51:24.659Z,97997.00
2019-02-12T00:54:33.437Z,98002.94
2019-02-12T00:57:40.446Z,98011.73
2019-02-12T01:00:47.399Z,98010.97
2019-02-12T01:03:54.534Z,98005.85
2019-02-12T01:07:01.792Z,97993.69
2019-02-12T01:10:10.076Z,97993.67
2019-02-12T01:13:17.128Z,97992.84
2019-02-12T01:16:26.243Z,98006.77
2019-02-12T01:19:33.298Z,98005.49
2019-02-12T01:22:40.331Z,97985.67
2019-02-12T01:25:47.350Z,97994.89
2019-02-12T01:28:54.437Z,97993.16
2019-02-12T01:32:01.438Z,98003.28
2019-02-12T01:35:08.577Z,98008.33
2019-02-12T01:38:15.659Z,98009.16
2019-02-12T01:41:23.684Z,98004.47
2019-02-12T01:44:33.363Z,98001.89
2019-02-12T01:47:42.032Z,98011.19
2019-02-12T01:50:48.964Z,97999.37
2019-02-12T01:53:55.824Z,98017.01
2019-02-12T01:57:02.738Z,98020.80
2019-02-12T02:00:16.645Z,98027.49
2019-02-12T02:03:23.492Z,98031.70
2019-02-12T02:06:31.731Z,98031.20
2019-02-12T02:09:40.631Z,98028.70
2019-02-12T02:12:47.666Z,98031.20
2019-02-12T02:15:54.581Z,98040.06
2019-02-12T02:19:01.624Z,98049.32
2019-02-12T02:22:08.822Z,98036.70
2019-02-12T02:25:16.409Z,98040.47
2019-02-12T02:28:24.399Z,98044.22
2019-02-12T02:31:31.431Z,98040.84
2019-02-12T02:34:39.137Z,98032.86
2019-02-12T02:37:46.110Z,98032.89
2019-02-12T02:40:53.141Z,98041.43
2019-02-12T02:44:00.140Z,98038.88
2019-02-12T02:47:07.091Z,98039.70
2019-02-12T02:50:14.108Z,98047.27
2019-02-12T02:53:21.244Z,98052.78
2019-02-12T02:56:29.905Z,98057.84
2019-02-12T02:59:36.783Z,98057.84
2019-02-12T03:02:43.790Z,98048.97
2019-02-12T03:05:53.435Z,98059.07
2019-02-12T03:09:00.473Z,98057.84
2019-02-12T03:12:09.330Z,98067.52
2019-02-12T03:15:16.346Z,98072.16
2019-02-12T03:18:23.244Z,98080.58
2019-02-12T03:21:30.604Z,98087.34
2019-02-12T03:24:37.835Z,98088.98
2019-02-12T03:27:45.918Z,98077.23
2019-02-12T03:30:52.829Z,98084.84
2019-02-12T03:33:59.733Z,98097.06
2019-02-12T03:37:06.553Z,98090.73
2019-02-12T03:40:13.505Z,98099.12
2019-02-12T03:43:20.526Z,98091.58
2019-02-12T03:46:27.931Z,98097.42
2019-02-12T03:49:38.028Z,98101.63
2019-02-12T03:52:45.339Z,98105.02
2019-02-12T03:55:52.279Z,98102.08
2019-02-12T03:58:59.267Z,98102.50
2019-02-12T04:02:06.323Z,98103.33
2019-02-12T04:05:13.318Z,98118.44
2019-02-12T04:08:20.321Z,98114.22
2019-02-12T04:11:27.229Z,98121.75
2019-02-12T04:14:34.657Z,98114.59
2019-02-12T04:17:41.599Z,98112.47
2019-02-12T04:20:49.449Z,98111.67
2019-02-12T04:23:56.571Z,98105.85
2019-02-12T04:27:03.464Z,98107.48
2019-02-12T04:30:10.417Z,98106.62
2019-02-12T04:33:17.310Z,98100.78
2019-02-12T04:36:24.287Z,98105.40
2019-02-12T04:39:31.586Z,98105.81
2019-02-12T04:42:40.207Z,98121.00
2019-02-12T04:45:47.797Z,98114.70
2019-02-12T04:48:54.722Z,98119.25
2019-02-12T04:52:01.680Z,98123.95
2019-02-12T04:55:10.676Z,98124.77
2019-02-12T04:58:17.652Z,98129.42
2019-02-12T05:01:24.701Z,98128.12
2019-02-12T05:04:31.844Z,98116.28
2019-02-12T05:07:38.858Z,98118.38
2019-02-12T05:10:59.651Z,98124.67
2019-02-12T05:14:06.638Z,98126.40
2019-02-12T05:17:14.080Z,98128.48
2019-02-12T05:20:21.067Z,98132.66
2019-02-12T05:23:28.082Z,98125.97
2019-02-12T05:26:35.092Z,98134.36
2019-02-12T05:29:42.090Z,98139.90
2019-02-12T05:32:49.126Z,98138.94
2019-02-12T05:35:56.263Z,98146.90
2019-02-12T05:39:04.555Z,98133.87
2019-02-12T05:42:12.006Z,98132.15
2019-02-12T05:45:19.405Z,98128.69
2019-02-12T05:48:26.328Z,98128.66
2019-02-12T05:51:33.350Z,98124.03
2019-02-12T05:54:40.203Z,98129.38
2019-02-12T05:57:47.222Z,98123.52
2019-02-12T06:00:54.148Z,98125.20
2019-02-12T06:04:01.011Z,98136.15
2019-02-12T06:07:07.920Z,98142.94
2019-02-12T06:10:14.941Z,98150.89
2019-02-12T06:13:21.851Z,98150.80
2019-02-12T06:16:29.615Z,98151.77
2019-02-12T06:19:38.070Z,98159.30
2019-02-12T06:22:45.001Z,98162.67
2019-02-12T06:25:51.977Z,98168.24
2019-02-12T06:28:58.817Z,98183.16
2019-02-12T06:32:05.747Z,98186.39
2019-02-12T06:35:12.749Z,98190.12
2019-02-12T06:38:19.801Z,98184.12
2019-02-12T06:41:27.035Z,98195.80
2019-02-12T06:44:34.012Z,98201.23
2019-02-12T06:47:41.044Z,98201.58
2019-02-12T06:50:51.752Z,98204.03
2019-02-12T06:53:58.697Z,98208.72
2019-02-12T06:57:05.610Z,98209.98
2019-02-12T07:00:12.550Z,98211.24
2019-02-12T07:03:23.040Z,98212.77
2019-02-12T07:07:33.732Z,98219.59
2019-02-12T07:10:40.685Z,98217.74
2019-02-12T07:14:25.645Z,98220.44
2019-02-12T07:17:52.885Z,98227.77
2019-02-12T07:22:02.151Z,98225.96
2019-02-12T07:25:37.805Z,98236.90
2019-02-12T07:30:05.711Z,98236.22
2019-02-12T07:33:50.950Z,98238.70
2019-02-12T07:37:20.998Z,98247.61
2019-02-12T07:41:20.014Z,98252.99
2019-02-12T07:45:02.236Z,98263.47
2019-02-12T07:49:04.144Z,98275.33
2019-02-12T07:53:20.107Z,98276.80
2019-02-12T07:57:33.701Z,98281.81
2019-02-12T08:01:40.233Z,98277.20
2019-02-12T08:05:55.093Z,98270.70
2019-02-12T08:10:07.057Z,98278.33
2019-02-12T08:14:25.994Z,98281.70
2019-02-12T08:18:21.644Z,98287.44
2019-02-12T08:22:03.689Z,98290.36
2019-02-12T08:26:01.723Z,98299.80
2019-02-12T08:30:41.937Z,98307.45
2019-02-12T08:34:50.919Z,98323.05
2019-02-12T08:38:44.974Z,98321.15
2019-02-12T08:42:33.490Z,98332.15
2019-02-12T08:46:19.711Z,98329.20
2019-02-12T08:50:31.881Z,98322.73
2019-02-12T08:54:59.763Z,98333.97
2019-02-12T08:58:56.564Z,98336.03
2019-02-12T09:02:32.457Z,98338.64
2019-02-12T09:06:17.467Z,98345.31
2019-02-12T09:10:29.329Z,98344.94
2019-02-12T09:14:08.958Z,98353.25
2019-02-12T09:18:28.251Z,98351.25
2019-02-12T09:22:52.676Z,98355.37
2019-02-12T09:26:51.575Z,98358.88
2019-02-12T09:30:52.966Z,98365.44
2019-02-12T09:34:43.954Z,98379.40
2019-02-12T09:38:24.595Z,98382.41
2019-02-12T09:42:05.943Z,98389.66
2019-02-12T09:45:28.492Z,98385.23
2019-02-12T09:49:25.479Z,98386.88
2019-02-12T09:53:37.267Z,98400.05
2019-02-12T09:57:32.514Z,98405.92
2019-02-12T10:01:24.860Z,98406.81
2019-02-12T10:05:34.095Z,98410.06
2019-02-12T10:09:31.185Z,98416.91
2019-02-12T10:13:12.434Z,98426.91
2019-02-12T10:17:16.024Z,98435.20
2019-02-12T10:20:53.597Z,98437.70
2019-02-12T10:24:19.907Z,98438.51
2019-02-12T10:28:02.885Z,98432.66
2019-02-12T10:31:26.734Z,98443.53
2019-02-12T10:34:33.663Z,98432.22
2019-02-12T10:37:41.434Z,98438.64
2019-02-12T10:40:48.391Z,98431.61
2019-02-12T10:43:55.262Z,98439.84
2019-02-12T10:47:02.220Z,98445.53
2019-02-12T10:50:09.206Z,98452.78
2019-02-12T10:53:18.724Z,98452.02
2019-02-12T10:56:25.929Z,98447.06
2019-02-12T10:59:32.926Z,98445.85
2019-02-12T11:02:39.828Z,98439.61
2019-02-12T11:05:46.836Z,98443.77
2019-02-12T11:08:53.735Z,98436.98
2019-02-12T11:12:00.636Z,98443.61
2019-02-12T11:15:07.967Z,98456.58
2019-02-12T11:18:14.805Z,98460.51
2019-02-12T11:21:21.903Z,98457.48
2019-02-12T11:24:35.380Z,98455.33
2019-02-12T11:27:37.635Z,98463.17
2019-02-12T11:30:45.721Z,98463.84
2019-02-12T11:33:53.233Z,98456.47
2019-02-12T11:37:00.193Z,98460.66
2019-02-12T11:40:08.555Z,98444.89
2019-02-12T11:43:15.464Z,98458.72
2019-02-12T11:46:24.124Z,98455.37
2019-02-12T11:49:30.990Z,98456.63
2019-02-12T11:52:37.994Z,98465.52
2019-02-12T11:55:47.620Z,98459.70
2019-02-12T11:58:54.628Z,98454.26
2019-02-12T12:02:01.582Z,98456.87
2019-02-12T12:05:09.842Z,98457.08
2019-02-12T12:08:16.787Z,98453.86
2019-02-12T12:11:23.622Z,98456.27
2019-02-12T12:14:30.481Z,98460.19
2019-02-12T12:17:39.477Z,98456.97
2019-02-12T12:20:46.421Z,98445.50
2019-02-12T12:23:53.582Z,98451.52
2019-02-12T12:27:02.482Z,98456.72
2019-02-12T12:30:10.562Z,98453.97
2019-02-12T12:33:17.502Z,98455.58
2019-02-12T12:36:24.605Z,98460.34
2019-02-12T12:39:31.539Z,98457.09
2019-02-12T12:42:38.489Z,98467.33
2019-02-12T12:45:45.595Z,98472.48
2019-02-12T12:48:52.702Z,98468.26
2019-02-12T12:51:59.593Z,98469.16
2019-02-12T12:55:06.932Z,98468.45
2019-02-12T12:58:17.426Z,98461.74
2019-02-12T13:01:24.656Z,98475.36
2019-02-12T13:04:33.732Z,98475.38
2019-02-12T13:07:40.640Z,98482.97
2019-02-12T13:10:47.558Z,98479.17
2019-02-12T13:13:54.557Z,98481.29
2019-02-12T13:17:01.432Z,98485.58
2019-02-12T13:20:12.316Z,98484.32
2019-02-12T13:23:19.265Z,98481.29
2019-02-12T13:26:26.290Z,98481.29
2019-02-12T13:29:39.728Z,98480.91
2019-02-12T13:32:46.983Z,98485.04
2019-02-12T13:35:53.801Z,98486.77
2019-02-12T13:39:00.728Z,98483.38
2019-02-12T13:42:08.060Z,98494.39
2019-02-12T13:45:18.415Z,98497.80
2019-02-12T13:48:25.411Z,98505.43
2019-02-12T13:51:32.453Z,98502.92
2019-02-12T13:54:39.349Z,98509.25
2019-02-12T13:57:46.433Z,98511.31
2019-02-12T14:00:53.660Z,98529.35
2019-02-12T14:04:00.570Z,98535.84
2019-02-12T14:07:09.084Z,98526.09
2019-02-12T14:10:18.972Z,98532.05
2019-02-12T14:13:25.914Z,98537.89
2019-02-12T14:16:36.036Z,98546.36
2019-02-12T14:19:42.877Z,98550.44
2019-02-12T14:22:49.880Z,98552.93
2019-02-12T14:25:56.707Z,98552.61
2019-02-12T14:29:06.668Z,98547.20
2019-02-12T14:32:14.836Z,98557.83
2019-02-12T14:35:21.787Z,98563.04
2019-02-12T14:38:31.817Z,98566.83
2019-02-12T14:41:38.634Z,98567.77
2019-02-12T14:44:45.662Z,98571.62
2019-02-12T14:47:52.603Z,98578.36
2019-02-12T14:50:59.446Z,98580.97
2019-02-12T14:54:07.328Z,98594.95
2019-02-12T14:57:14.434Z,98592.11
2019-02-12T15:00:21.277Z,98592.59
2019-02-12T15:03:28.361Z,98592.23
2019-02-12T15:06:38.023Z,98599.82
2019-02-12T15:09:46.667Z,98593.06
2019-02-12T15:12:54.225Z,98598.55
2019-02-12T15:16:01.149Z,98604.06
2019-02-12T15:19:08.255Z,98601.52
2019-02-12T15:22:15.348Z,98610.73
2019-02-12T15:25:22.274Z,98613.70
2019-02-12T15:28:29.282Z,98613.27
2019-02-12T15:31:37.758Z,98614.50
2019-02-12T15:34:45.059Z,98617.01
2019-02-12T15:37:52.317Z,98616.17
2019-02-12T15:40:59.265Z,98622.06
2019-02-12T15:44:06.241Z,98620.77
2019-02-12T15:47:13.242Z,98622.45
2019-02-12T15:50:20.182Z,98625.03
2019-02-12T15:53:28.408Z,98625.03
2019-02-12T15:56:35.327Z,98623.30
2019-02-12T15:59:42.150Z,98623.66
2019-02-12T16:02:54.522Z,98624.89
2019-02-12T16:06:01.621Z,98626.19
2019-02-12T16:09:09.062Z,98640.88
2019-02-12T16:12:15.921Z,98634.14
2019-02-12T16:15:24.609Z,98639.95
2019-02-12T16:18:31.506Z,98640.98
2019-02-12T16:21:38.332Z,98643.45
2019-02-12T16:24:46.730Z,98648.41
2019-02-12T16:27:53.684Z,98650.29
2019-02-12T16:31:00.589Z,98654.51
2019-02-12T16:34:08.598Z,98659.16
2019-02-12T16:37:19.728Z,98656.58
2019-02-12T16:40:26.953Z,98658.76
2019-02-12T16:43:34.001Z,98661.78
2019-02-12T16:46:42.904Z,98660.93
2019-02-12T16:49:49.853Z,98661.78
2019-02-12T16:52:56.797Z,98661.61
2019-02-12T16:56:08.399Z,98667.67
2019-02-12T16:59:13.932Z,98680.23
2019-02-12T17:02:21.801Z,98683.09
2019-02-12T17:05:28.821Z,98690.48
2019-02-12T17:08:35.881Z,98696.38
2019-02-12T17:11:44.586Z,98696.03
2019-02-12T17:14:52.460Z,98701.49
2019-02-12T17:18:01.428Z,98704.51
2019-02-12T17:21:10.770Z,98708.33
2019-02-12T17:24:24.325Z,98714.71
2019-02-12T17:27:31.865Z,98728.13
2019-02-12T17:30:39.580Z,98729.48
2019-02-12T17:33:46.788Z,98727.17
2019-02-12T17:36:53.756Z,98727.38
2019-02-12T17:40:02.217Z,98722.58
2019-02-12T17:43:09.840Z,98732.75
2019-02-12T17:46:16.799Z,98739.91
2019-02-12T17:49:24.086Z,98740.83
2019-02-12T17:52:31.707Z,98743.36
2019-02-12T17:55:38.730Z,98747.09
2019-02-12T17:58:45.772Z,98745.42
2019-02-12T18:01:52.841Z,98745.42
2019-02-12T18:05:00.275Z,98751.89
2019-02-12T18:08:07.156Z,98752.14
2019-02-12T18:11:14.558Z,98756.43
2019-02-12T18:14:21.493Z,98763.18
2019-02-12T18:17:28.391Z,98770.45
2019-02-12T18:20:35.287Z,98772.71
2019-02-12T18:23:42.243Z,98787.17
2019-02-12T18:26:51.882Z,98785.32
2019-02-12T18:29:58.779Z,98781.53
2019-02-12T18:33:05.735Z,98790.55
2019-02-12T18:36:12.616Z,98792.69
2019-02-12T18:39:19.523Z,98796.37
2019-02-12T18:42:26.738Z,98794.88
2019-02-12T18:45:33.745Z,98794.81
2019-02-12T18:48:40.633Z,98799.64
2019-02-12T18:51:47.943Z,98797.88
2019-02-12T18:54:54.910Z,98800.10
2019-02-12T18:58:01.913Z,98804.73
2019-02-12T19:01:08.869Z,98810.14
2019-02-12T19:04:15.891Z,98812.27
2019-02-12T19:07:22.753Z,98810.64
2019-02-12T19:10:29.769Z,98811.28
2019-02-12T19:13:36.712Z,98813.34
2019-02-12T19:16:43.783Z,98804.56
2019-02-12T19:19:50.834Z,98812.08
2019-02-12T19:22:59.428Z,98811.02
2019-02-12T19:26:06.508Z,98810.55
2019-02-12T19:29:13.387Z,98818.56
2019-02-12T19:32:20.338Z,98817.20
2019-02-12T19:35:27.364Z,98826.41
2019-02-12T19:38:34.301Z,98826.47
2019-02-12T19:41:41.221Z,98825.64
2019-02-12T19:44:52.157Z,98820.55
2019-02-12T19:47:59.518Z,98828.20
2019-02-12T19:51:06.547Z,98831.72
2019-02-12T19:54:14.426Z,98833.17
2019-02-12T19:57:21.432Z,98834.44
2019-02-12T20:00:28.399Z,98837.83
2019-02-12T20:03:35.413Z,98836.56
2019-02-12T20:06:42.342Z,98840.35
2019-02-12T20:09:49.505Z,98845.84
2019-02-12T20:12:56.675Z,98836.92
2019-02-12T20:16:03.735Z,98831.48
2019-02-12T20:19:10.789Z,98834.83
2019-02-12T20:22:18.019Z,98832.59
2019-02-12T20:25:25.169Z,98828.63
2019-02-12T20:28:32.066Z,98828.73
2019-02-12T20:31:39.066Z,98836.50
2019-02-12T20:34:48.179Z,98839.45
2019-02-12T20:37:55.239Z,98841.21
2019-02-12T20:41:02.134Z,98837.22
2019-02-12T20:44:09.226Z,98836.48
2019-02-12T20:47:16.490Z,98835.74
2019-02-12T20:50:23.533Z,98830.41
2019-02-12T20:53:30.478Z,98835.89
2019-02-12T20:56:37.394Z,98837.08
2019-02-12T20:59:44.640Z,98831.53
2019-02-12T21:02:51.652Z,98834.13
2019-02-12T21:05:58.648Z,98829.20
2019-02-12T21:09:07.343Z,98830.62
2019-02-12T21:12:14.153Z,98834.45
2019-02-12T21:15:21.587Z,98836.70
2019-02-12T21:18:28.492Z,98846.51
2019-02-12T21:21:35.332Z,98856.59
2019-02-12T21:24:43.518Z,98844.66
2019-02-12T21:27:50.516Z,98846.25
2019-02-12T21:30:57.387Z,98851.55
2019-02-12T21:34:04.454Z,98847.69
2019-02-12T21:37:11.300Z,98846.47
2019-02-12T21:40:20.879Z,98853.09
2019-02-12T21:43:27.730Z,98858.30
2019-02-12T21:46:34.650Z,98863.23
2019-02-12T21:49:43.168Z,98863.19
2019-02-12T21:52:50.039Z,98871.44
2019-02-12T21:55:57.043Z,98876.02
2019-02-12T21:59:04.433Z,98871.16
2019-02-12T22:02:13.872Z,98875.06
2019-02-12T22:05:22.317Z,98873.72
2019-02-12T22:08:29.126Z,98870.96
2019-02-12T22:11:36.169Z,98870.76
2019-02-12T22:14:43.024Z,98862.54
2019-02-12T22:17:51.875Z,98861.84
2019-02-12T22:20:58.566Z,98864.02
2019-02-12T22:24:05.494Z,98866.54
2019-02-12T22:27:13.186Z,98869.17
2019-02-12T22:30:21.190Z,98866.37
2019-02-12T22:33:28.083Z,98871.05
2019-02-12T22:36:34.905Z,98871.53
2019-02-12T22:39:44.085Z,98874.95
2019-02-12T22:42:51.581Z,98869.80
2019-02-12T22:45:58.851Z,98873.73
2019-02-12T22:49:05.823Z,98872.55
2019-02-12T22:52:14.106Z,98880.16
2019-02-12T22:55:21.023Z,98874.67
2019-02-12T22:58:27.910Z,98877.67
2019-02-12T23:01:39.247Z,98880.20
2019-02-12T23:04:46.153Z,98879.36
2019-02-12T23:07:55.304Z,98881.89
2019-02-12T23:11:02.177Z,98880.23
2019-02-12T23:14:10.064Z,98881.09
2019-02-12T23:17:17.886Z,98874.82
2019-02-12T23:20:24.726Z,98883.70
2019-02-12T23:23:31.738Z,98880.77
2019-02-12T23:26:38.633Z,98868.65
2019-02-12T23:29:45.464Z,98872.36
2019-02-12T23:32:52.546Z,98877.27
2019-02-12T23:35:59.410Z,98874.38
2019-02-12T23:39:07.533Z,98878.10
2019-02-12T23:42:15.953Z,98885.28
2019-02-12T23:45:22.774Z,98886.52
2019-02-12T23:48:30.486Z,98893.02
2019-02-12T23:51:37.391Z,98887.52
2019-02-12T23:54:44.526Z,98892.69
2019-02-12T23:57:54.864Z,98896.41
